Terminal Aerodrome Forecast
Issued by NWS

Home | Current Version | Previous Version | Text Only | Print | Product List | Glossary On
Versions: 1 2 3 4 5 6 7 8 9 10 11 12 13 14 15 16 17 18
000
FTPA31 PHFO 271742
TAFHNY
TAF
PHNY 271742Z 2718/2818 03006KT P6SM FEW015 SCT045
     FM272000 26007KT P6SM VCSH BKN025
     FM280400 05007KT P6SM SCT025 BKN035=

USA.gov is the U.S. government's official web portal to all federal, state and local government web resources and services.